Time;durP1;ratioP1;P1;durP2;ratioP2;P2;SDS_P1;SDS_P2;PMS_P1;PMS_P2;Temp;Humidity;BMP_temperature;BMP_pressure;BME280_temperature;BME280_humidity;BME280_pressure;Samples;Min_cycle;Max_cycle;Signal;HPM_P1;HPM_P2
2021/12/06 00:00:43;;;;;;;40.97;25.77;;;;;;;;;;2080849;28;20179;-56
2021/12/06 00:01:49;;;;;;;38.03;25.30;;;;;;;;;;2080164;28;20175;-57
2021/12/06 00:02:51;;;;;;;40.83;24.47;;;;;;;;;;2081556;28;20172;-58
2021/12/06 00:03:54;;;;;;;37.97;25.07;;;;;;;;;;2081518;28;20176;-57
2021/12/06 00:04:54;;;;;;;35.43;23.43;;;;;;;;;;2081168;28;20606;-54
2021/12/06 00:05:54;;;;;;;34.30;23.47;;;;;;;;;;2079711;28;20226;-57
2021/12/06 00:06:59;;;;;;;41.57;25.07;;;;;;;;;;2080106;28;20663;-54
2021/12/06 00:07:59;;;;;;;38.20;25.50;;;;;;;;;;2080072;28;20226;-60
2021/12/06 00:09:02;;;;;;;32.47;24.03;;;;;;;;;;2070960;28;20243;-56
2021/12/06 00:10:02;;;;;;;37.27;24.03;;;;;;;;;;2071347;28;20205;-57
2021/12/06 00:11:08;;;;;;;34.70;23.47;;;;;;;;;;2078989;28;20172;-58
2021/12/06 00:12:08;;;;;;;33.27;22.87;;;;;;;;;;2080542;28;20195;-57
2021/12/06 00:13:09;;;;;;;40.00;24.40;;;;;;;;;;2073768;28;20169;-55
2021/12/06 00:14:09;;;;;;;33.53;23.80;;;;;;;;;;2072220;28;20177;-56
2021/12/06 00:15:10;;;;;;;36.10;23.77;;;;;;;;;;2061610;28;20174;-59
2021/12/06 00:16:14;;;;;;;39.90;25.03;;;;;;;;;;2078277;28;20200;-60
2021/12/06 00:17:16;;;;;;;37.97;24.13;;;;;;;;;;2083649;28;20203;-55
2021/12/06 00:18:17;;;;;;;34.30;23.57;;;;;;;;;;2084200;28;20180;-58
2021/12/06 00:19:17;;;;;;;36.87;24.63;;;;;;;;;;2081575;28;20268;-58
2021/12/06 00:20:18;;;;;;;37.63;25.17;;;;;;;;;;2085319;28;20183;-59
2021/12/06 00:21:19;;;;;;;40.87;24.73;;;;;;;;;;2079093;28;20633;-57
2021/12/06 00:22:23;;;;;;;36.73;24.83;;;;;;;;;;2083744;28;20721;-55
2021/12/06 00:23:23;;;;;;;40.70;26.07;;;;;;;;;;2082934;28;20183;-55
2021/12/06 00:24:24;;;;;;;36.93;25.10;;;;;;;;;;2074331;28;20215;-56
2021/12/06 00:25:24;;;;;;;40.60;25.70;;;;;;;;;;2072422;28;20193;-57
2021/12/06 00:26:24;;;;;;;35.30;24.03;;;;;;;;;;2077364;28;20181;-58
2021/12/06 00:27:25;;;;;;;38.77;26.37;;;;;;;;;;2080351;28;20168;-55
2021/12/06 00:28:26;;;;;;;45.90;27.67;;;;;;;;;;2083588;28;20238;-54
2021/12/06 00:29:26;;;;;;;39.77;25.97;;;;;;;;;;2074424;28;20657;-57
2021/12/06 00:30:26;;;;;;;37.07;24.97;;;;;;;;;;2074561;28;20161;-54
2021/12/06 00:31:31;;;;;;;42.27;25.63;;;;;;;;;;2083494;28;20192;-63
2021/12/06 00:32:32;;;;;;;40.40;25.57;;;;;;;;;;2084231;28;20169;-51
2021/12/06 00:33:34;;;;;;;43.30;27.37;;;;;;;;;;2083288;28;20168;-58
2021/12/06 00:34:36;;;;;;;41.60;27.40;;;;;;;;;;2066063;28;20593;-57
2021/12/06 00:35:36;;;;;;;47.20;27.13;;;;;;;;;;2066726;28;20174;-57
2021/12/06 00:36:39;;;;;;;43.53;27.20;;;;;;;;;;2074294;28;20181;-57
2021/12/06 00:37:52;;;;;;;42.37;26.33;;;;;;;;;;2074489;28;20247;-57
2021/12/06 00:38:53;;;;;;;37.57;24.30;;;;;;;;;;2082859;28;20199;-58
2021/12/06 00:39:54;;;;;;;37.03;24.97;;;;;;;;;;2065608;28;20260;-56
2021/12/06 00:40:54;;;;;;;39.60;25.63;;;;;;;;;;2066203;28;20181;-58
2021/12/06 00:41:55;;;;;;;38.33;25.27;;;;;;;;;;2073351;28;20212;-57
2021/12/06 00:42:55;;;;;;;41.67;25.63;;;;;;;;;;2073987;28;20219;-56
2021/12/06 00:43:58;;;;;;;40.53;25.50;;;;;;;;;;2082642;28;20247;-56
2021/12/06 00:44:59;;;;;;;39.13;25.83;;;;;;;;;;2073755;28;20669;-57
2021/12/06 00:46:00;;;;;;;39.73;25.43;;;;;;;;;;2073515;28;20271;-58
2021/12/06 00:47:00;;;;;;;39.40;26.40;;;;;;;;;;2073419;28;20185;-59
2021/12/06 00:48:01;;;;;;;42.13;24.93;;;;;;;;;;2073419;28;20180;-58
2021/12/06 00:49:01;;;;;;;43.87;25.87;;;;;;;;;;2065751;28;20180;-57
2021/12/06 00:50:03;;;;;;;44.40;26.20;;;;;;;;;;2057319;28;20210;-57
2021/12/06 00:51:04;;;;;;;43.97;27.93;;;;;;;;;;2073753;28;20567;-57
2021/12/06 00:52:05;;;;;;;41.77;26.77;;;;;;;;;;2073467;28;20204;-57
2021/12/06 00:53:05;;;;;;;42.27;27.80;;;;;;;;;;2073828;28;20596;-57
2021/12/06 00:54:06;;;;;;;47.20;26.77;;;;;;;;;;2065492;28;20666;-58
2021/12/06 00:55:07;;;;;;;45.20;25.63;;;;;;;;;;2064018;28;20173;-59
2021/12/06 00:56:07;;;;;;;45.27;26.87;;;;;;;;;;2069187;28;20203;-58
2021/12/06 00:57:08;;;;;;;43.27;26.73;;;;;;;;;;2064497;28;20717;-58
2021/12/06 00:58:09;;;;;;;42.70;27.37;;;;;;;;;;2069817;28;20192;-59
2021/12/06 00:59:09;;;;;;;48.90;27.43;;;;;;;;;;2072090;28;20184;-58
2021/12/06 01:00:30;;;;;;;46.87;26.83;;;;;;;;;;2062607;28;20198;-59
2021/12/06 01:01:31;;;;;;;43.70;26.40;;;;;;;;;;2064643;28;20181;-57
2021/12/06 01:02:32;;;;;;;44.77;26.87;;;;;;;;;;2072866;28;20211;-60
2021/12/06 01:03:34;;;;;;;39.90;26.40;;;;;;;;;;2060188;28;20204;-60
2021/12/06 01:04:36;;;;;;;43.60;26.50;;;;;;;;;;2075544;28;20176;-59
2021/12/06 01:05:36;;;;;;;44.70;26.50;;;;;;;;;;2076893;28;20169;-55
2021/12/06 01:06:37;;;;;;;37.87;26.53;;;;;;;;;;2081583;28;20577;-57
2021/12/06 01:07:37;;;;;;;43.60;26.83;;;;;;;;;;2079168;28;20180;-60
2021/12/06 01:08:38;;;;;;;45.77;28.30;;;;;;;;;;2080252;28;20235;-59
2021/12/06 01:09:39;;;;;;;45.00;27.10;;;;;;;;;;2081849;28;20192;-59
2021/12/06 01:10:42;;;;;;;43.23;26.60;;;;;;;;;;2079305;28;20227;-60
2021/12/06 01:11:42;;;;;;;35.80;22.83;;;;;;;;;;2068064;28;20177;-58
2021/12/06 01:12:43;;;;;;;36.57;25.40;;;;;;;;;;2059603;28;20213;-60
2021/12/06 01:13:43;;;;;;;39.87;25.10;;;;;;;;;;2070842;28;20183;-60
2021/12/06 01:14:44;;;;;;;43.43;26.83;;;;;;;;;;2076442;28;20219;-59
2021/12/06 01:15:44;;;;;;;41.30;24.10;;;;;;;;;;2074498;28;20173;-59
2021/12/06 01:16:44;;;;;;;48.50;27.97;;;;;;;;;;2076535;28;20536;-60
2021/12/06 01:17:46;;;;;;;40.40;25.40;;;;;;;;;;2067180;28;20759;-58
2021/12/06 01:18:47;;;;;;;38.97;25.07;;;;;;;;;;2065223;28;20225;-59
2021/12/06 01:19:48;;;;;;;40.20;25.43;;;;;;;;;;2071577;28;20290;-58
2021/12/06 01:20:54;;;;;;;38.27;24.53;;;;;;;;;;2078240;28;20184;-59
2021/12/06 01:22:14;;;;;;;35.17;23.43;;;;;;;;;;2067370;28;20208;-57
2021/12/06 01:23:18;;;;;;;38.00;23.60;;;;;;;;;;2061378;28;20170;-58
2021/12/06 01:24:25;;;;;;;42.07;25.23;;;;;;;;;;2059624;28;20237;-57
2021/12/06 01:31:50;;;;;;;38.13;24.17;;;;;;;;;;2053573;28;20170;-55
2021/12/06 01:39:28;;;;;;;36.53;23.50;;;;;;;;;;2076245;28;20184;-58
2021/12/06 01:40:28;;;;;;;41.73;24.03;;;;;;;;;;2070322;23;21009;-52
2021/12/06 01:41:30;;;;;;;41.37;24.43;;;;;;;;;;2055878;28;20230;-52
2021/12/06 01:42:31;;;;;;;42.83;25.00;;;;;;;;;;2057043;28;20691;-53
2021/12/06 01:43:33;;;;;;;40.07;25.77;;;;;;;;;;2057114;28;20176;-52
2021/12/06 01:44:37;;;;;;;42.00;25.57;;;;;;;;;;2057040;28;20261;-52
2021/12/06 01:45:47;;;;;;;41.57;24.40;;;;;;;;;;2059289;28;20245;-52
2021/12/06 01:46:53;;;;;;;39.10;24.77;;;;;;;;;;2056845;28;20201;-52
2021/12/06 01:47:54;;;;;;;39.53;24.93;;;;;;;;;;2066232;28;20227;-54
2021/12/06 01:48:54;;;;;;;39.03;24.77;;;;;;;;;;2073404;28;20200;-52
2021/12/06 01:49:56;;;;;;;45.37;24.53;;;;;;;;;;2074054;28;20663;-52
2021/12/06 01:51:00;;;;;;;36.53;23.77;;;;;;;;;;2065290;28;20268;-52
2021/12/06 01:52:03;;;;;;;44.77;25.23;;;;;;;;;;2056896;28;20658;-52
2021/12/06 01:53:04;;;;;;;38.93;24.50;;;;;;;;;;2065823;28;20181;-55
2021/12/06 01:54:06;;;;;;;41.63;24.47;;;;;;;;;;2074296;28;20219;-55
2021/12/06 01:55:08;;;;;;;41.47;25.37;;;;;;;;;;2066726;28;20667;-55
2021/12/06 01:56:09;;;;;;;44.73;26.07;;;;;;;;;;2056870;28;20193;-55
2021/12/06 01:57:09;;;;;;;43.57;24.10;;;;;;;;;;2064173;28;20178;-56
2021/12/06 01:58:10;;;;;;;40.57;24.80;;;;;;;;;;2048708;28;20195;-52
2021/12/06 01:59:10;;;;;;;41.33;26.03;;;;;;;;;;2061477;28;20186;-52
2021/12/06 02:00:16;;;;;;;38.97;24.13;;;;;;;;;;2061044;28;20669;-53
2021/12/06 02:01:16;;;;;;;41.67;25.00;;;;;;;;;;2068976;28;20186;-54
2021/12/06 02:02:17;;;;;;;41.57;23.90;;;;;;;;;;2059468;28;20736;-51
2021/12/06 02:03:17;;;;;;;41.67;24.50;;;;;;;;;;2049605;28;20664;-52
2021/12/06 02:04:19;;;;;;;42.03;25.40;;;;;;;;;;2042808;28;20238;-52
2021/12/06 02:05:19;;;;;;;49.43;25.67;;;;;;;;;;2040037;28;20207;-50
2021/12/06 02:06:20;;;;;;;39.53;24.37;;;;;;;;;;2057267;28;20189;-51
2021/12/06 02:07:23;;;;;;;35.00;23.30;;;;;;;;;;2058542;28;20193;-51
2021/12/06 02:08:28;;;;;;;41.60;24.17;;;;;;;;;;2055137;28;20284;-52
2021/12/06 02:09:32;;;;;;;39.10;23.47;;;;;;;;;;2047531;28;20181;-53
2021/12/06 02:10:38;;;;;;;44.60;24.33;;;;;;;;;;2050615;28;20187;-51
2021/12/06 02:11:42;;;;;;;39.70;24.43;;;;;;;;;;2057771;28;20253;-51
2021/12/06 02:12:46;;;;;;;41.53;24.90;;;;;;;;;;2059582;28;20170;-54
2021/12/06 02:13:57;;;;;;;40.20;24.43;;;;;;;;;;2059965;28;20244;-53
2021/12/06 02:15:05;;;;;;;40.40;23.13;;;;;;;;;;2061422;28;20539;-52
2021/12/06 02:16:06;;;;;;;40.07;23.70;;;;;;;;;;2058554;28;20177;-54
2021/12/06 02:17:22;;;;;;;39.07;21.87;;;;;;;;;;2050197;28;20630;-50
2021/12/06 02:19:33;;;;;;;39.33;23.10;;;;;;;;;;2068526;28;20169;-56
2021/12/06 02:20:41;;;;;;;42.03;24.17;;;;;;;;;;2055170;28;20253;-53
2021/12/06 02:21:42;;;;;;;39.23;22.13;;;;;;;;;;2055724;28;20162;-53
2021/12/06 02:22:45;;;;;;;36.50;22.47;;;;;;;;;;2060379;28;20178;-51
2021/12/06 02:23:47;;;;;;;38.70;24.47;;;;;;;;;;2053775;28;20194;-55
2021/12/06 02:24:48;;;;;;;42.27;24.40;;;;;;;;;;2056115;28;20669;-55
2021/12/06 02:25:48;;;;;;;39.33;23.70;;;;;;;;;;2062041;28;20194;-51
2021/12/06 02:26:51;;;;;;;38.80;24.03;;;;;;;;;;2063468;28;20264;-55
2021/12/06 02:27:52;;;;;;;39.40;23.37;;;;;;;;;;2065073;28;20200;-52
2021/12/06 02:28:54;;;;;;;38.97;23.93;;;;;;;;;;2055322;28;20211;-53
2021/12/06 02:29:57;;;;;;;35.93;22.93;;;;;;;;;;2053170;28;20179;-52
2021/12/06 02:30:58;;;;;;;38.43;23.07;;;;;;;;;;2060950;28;20216;-52
2021/12/06 02:31:58;;;;;;;40.57;21.90;;;;;;;;;;2068764;28;20208;-55
2021/12/06 02:32:59;;;;;;;35.83;22.10;;;;;;;;;;2061554;28;20186;-53
2021/12/06 02:33:59;;;;;;;37.20;21.87;;;;;;;;;;2046983;28;20254;-54
2021/12/06 02:35:00;;;;;;;38.93;21.67;;;;;;;;;;2048917;28;20171;-54
2021/12/06 02:36:00;;;;;;;42.50;22.80;;;;;;;;;;2052697;28;20210;-54
2021/12/06 02:37:01;;;;;;;36.97;22.07;;;;;;;;;;2055130;28;20170;-52
2021/12/06 02:38:07;;;;;;;37.50;22.07;;;;;;;;;;2053417;28;20181;-56
2021/12/06 02:39:10;;;;;;;34.73;21.50;;;;;;;;;;2041083;29;20186;-56
2021/12/06 02:40:12;;;;;;;34.97;21.47;;;;;;;;;;2055996;28;20599;-53
2021/12/06 02:41:13;;;;;;;37.77;21.90;;;;;;;;;;2063668;28;20185;-59
2021/12/06 02:42:15;;;;;;;37.13;21.83;;;;;;;;;;2052982;28;20193;-57
2021/12/06 02:43:16;;;;;;;32.67;20.70;;;;;;;;;;2054111;28;20694;-55
2021/12/06 02:44:17;;;;;;;32.90;21.13;;;;;;;;;;2048028;28;20269;-52
2021/12/06 02:45:20;;;;;;;32.20;20.93;;;;;;;;;;2054839;28;20301;-55
2021/12/06 02:46:21;;;;;;;34.67;20.67;;;;;;;;;;2057511;28;20237;-54
2021/12/06 02:47:23;;;;;;;30.73;20.53;;;;;;;;;;2061944;28;20192;-52
2021/12/06 02:48:24;;;;;;;34.23;20.77;;;;;;;;;;2050333;28;20203;-55
2021/12/06 02:49:24;;;;;;;34.77;19.80;;;;;;;;;;2056978;28;20190;-51
2021/12/06 02:50:27;;;;;;;32.23;20.90;;;;;;;;;;2064717;28;20181;-54
2021/12/06 02:51:27;;;;;;;33.80;20.77;;;;;;;;;;2061999;28;20643;-54
2021/12/06 02:52:27;;;;;;;30.63;19.60;;;;;;;;;;2070345;28;20263;-54
2021/12/06 02:53:29;;;;;;;33.40;20.83;;;;;;;;;;2058606;28;20174;-55
2021/12/06 02:54:30;;;;;;;28.67;20.03;;;;;;;;;;2062715;28;20182;-55
2021/12/06 02:55:34;;;;;;;32.50;19.80;;;;;;;;;;2065028;28;20280;-55
2021/12/06 02:56:51;;;;;;;29.00;19.53;;;;;;;;;;2059775;28;20690;-52
2021/12/06 02:57:55;;;;;;;28.97;19.40;;;;;;;;;;2055191;28;20179;-52
2021/12/06 02:59:04;;;;;;;35.83;19.37;;;;;;;;;;2057596;28;20183;-51
2021/12/06 03:00:09;;;;;;;24.47;17.30;;;;;;;;;;2051063;28;20182;-56
2021/12/06 03:01:14;;;;;;;28.67;19.13;;;;;;;;;;2040887;28;20168;-56
2021/12/06 03:02:19;;;;;;;30.80;18.53;;;;;;;;;;2046119;28;20211;-55
2021/12/06 03:03:21;;;;;;;26.47;18.80;;;;;;;;;;2054912;28;20174;-55
2021/12/06 03:04:22;;;;;;;31.47;19.43;;;;;;;;;;2048286;28;20190;-52
2021/12/06 03:05:23;;;;;;;30.77;19.33;;;;;;;;;;2053753;28;20178;-53
2021/12/06 03:06:24;;;;;;;28.67;19.57;;;;;;;;;;2050095;28;20266;-55
2021/12/06 03:07:28;;;;;;;31.70;19.43;;;;;;;;;;2060473;28;20166;-53
2021/12/06 03:08:38;;;;;;;30.17;20.60;;;;;;;;;;2058653;28;20229;-55
2021/12/06 03:09:40;;;;;;;31.40;19.50;;;;;;;;;;2051901;28;20183;-55
2021/12/06 03:10:41;;;;;;;29.37;19.10;;;;;;;;;;2060303;28;20200;-52
2021/12/06 03:11:44;;;;;;;27.90;19.57;;;;;;;;;;2060966;28;20261;-53
2021/12/06 03:12:44;;;;;;;33.40;18.63;;;;;;;;;;2054663;28;20194;-54
2021/12/06 03:13:45;;;;;;;32.17;19.87;;;;;;;;;;2045463;28;20523;-54
2021/12/06 03:14:51;;;;;;;35.93;20.40;;;;;;;;;;2052682;28;20178;-53
2021/12/06 03:15:52;;;;;;;31.60;19.87;;;;;;;;;;2048023;28;20235;-52
2021/12/06 03:16:53;;;;;;;34.13;21.53;;;;;;;;;;2054187;28;20693;-52
2021/12/06 03:17:54;;;;;;;34.07;19.63;;;;;;;;;;2057735;28;20293;-51
2021/12/06 03:18:55;;;;;;;31.57;20.33;;;;;;;;;;2055779;28;20179;-53
2021/12/06 03:19:56;;;;;;;33.43;20.47;;;;;;;;;;2051685;28;20261;-51
2021/12/06 03:20:57;;;;;;;33.80;21.50;;;;;;;;;;2054876;28;20217;-50
2021/12/06 03:21:57;;;;;;;30.70;20.03;;;;;;;;;;2056059;28;20186;-54
2021/12/06 03:22:58;;;;;;;34.17;21.40;;;;;;;;;;2056019;28;20197;-51
2021/12/06 03:23:59;;;;;;;32.67;21.50;;;;;;;;;;2049541;28;20194;-51
2021/12/06 03:24:59;;;;;;;35.47;20.20;;;;;;;;;;2041221;28;20699;-53
2021/12/06 03:26:00;;;;;;;32.90;20.07;;;;;;;;;;2048335;28;20234;-51
2021/12/06 03:27:01;;;;;;;29.40;19.50;;;;;;;;;;2047666;28;20179;-51
2021/12/06 03:28:01;;;;;;;34.07;19.37;;;;;;;;;;2046779;28;20587;-52
2021/12/06 03:29:02;;;;;;;32.73;21.23;;;;;;;;;;2047653;28;20207;-54
2021/12/06 03:30:04;;;;;;;31.70;18.93;;;;;;;;;;2055550;28;20205;-53
2021/12/06 03:31:06;;;;;;;31.00;20.03;;;;;;;;;;2063523;28;20181;-53
2021/12/06 03:32:07;;;;;;;30.27;19.30;;;;;;;;;;2062901;28;20173;-52
2021/12/06 03:33:07;;;;;;;29.63;19.23;;;;;;;;;;2058310;28;20181;-56
2021/12/06 03:34:08;;;;;;;33.17;20.47;;;;;;;;;;2062835;28;20597;-56
2021/12/06 03:35:09;;;;;;;33.40;20.23;;;;;;;;;;2053590;28;20210;-55
2021/12/06 03:36:10;;;;;;;30.23;19.50;;;;;;;;;;2062833;28;20637;-55
2021/12/06 03:37:11;;;;;;;34.30;20.77;;;;;;;;;;2063601;28;20235;-52
2021/12/06 03:38:12;;;;;;;32.70;21.80;;;;;;;;;;2047873;28;20566;-53
2021/12/06 03:39:20;;;;;;;38.87;21.40;;;;;;;;;;2055654;28;20170;-52
2021/12/06 03:40:21;;;;;;;33.73;20.70;;;;;;;;;;2057151;28;20214;-51
2021/12/06 03:41:22;;;;;;;33.40;20.47;;;;;;;;;;2051809;28;20180;-55
2021/12/06 03:42:23;;;;;;;33.83;20.50;;;;;;;;;;2061851;28;20208;-54
2021/12/06 03:43:25;;;;;;;35.10;20.83;;;;;;;;;;2048798;28;20174;-51
2021/12/06 03:44:27;;;;;;;38.73;21.83;;;;;;;;;;2048490;28;20194;-52
2021/12/06 03:45:27;;;;;;;36.20;21.83;;;;;;;;;;2041573;28;20187;-51
2021/12/06 03:46:29;;;;;;;37.80;22.33;;;;;;;;;;2042759;28;20175;-55
2021/12/06 03:47:30;;;;;;;34.30;21.33;;;;;;;;;;2048245;28;20950;-52
2021/12/06 03:48:32;;;;;;;40.33;20.83;;;;;;;;;;2047749;28;20202;-56
2021/12/06 03:49:34;;;;;;;36.03;21.93;;;;;;;;;;2057029;28;20644;-54
2021/12/06 03:50:34;;;;;;;39.13;22.83;;;;;;;;;;2055828;28;20225;-53
2021/12/06 03:51:36;;;;;;;35.53;20.30;;;;;;;;;;2059054;28;20216;-54
2021/12/06 03:52:36;;;;;;;37.07;22.50;;;;;;;;;;2061735;28;20169;-54
2021/12/06 03:53:37;;;;;;;41.27;22.73;;;;;;;;;;2051905;28;20613;-55
2021/12/06 03:54:37;;;;;;;37.47;20.97;;;;;;;;;;2050027;28;20167;-54
2021/12/06 03:55:37;;;;;;;36.77;21.73;;;;;;;;;;2059315;28;20185;-53
2021/12/06 03:56:39;;;;;;;37.50;23.13;;;;;;;;;;2051535;28;20326;-53
2021/12/06 03:57:39;;;;;;;37.80;21.00;;;;;;;;;;2048665;28;20347;-54
2021/12/06 03:58:44;;;;;;;41.30;23.23;;;;;;;;;;2047732;28;20187;-55
2021/12/06 03:59:45;;;;;;;44.90;24.07;;;;;;;;;;2047185;28;20183;-51
2021/12/06 04:00:47;;;;;;;40.97;21.93;;;;;;;;;;2046914;28;20194;-52
2021/12/06 04:01:48;;;;;;;37.23;22.50;;;;;;;;;;2047640;28;21053;-55
2021/12/06 04:02:53;;;;;;;38.00;22.97;;;;;;;;;;2044508;28;20184;-52
2021/12/06 04:03:55;;;;;;;37.03;23.37;;;;;;;;;;2061618;28;20189;-55
2021/12/06 04:04:56;;;;;;;38.57;22.77;;;;;;;;;;2056693;28;20237;-54
2021/12/06 04:06:00;;;;;;;38.27;23.70;;;;;;;;;;2056764;28;20245;-54
2021/12/06 04:07:03;;;;;;;39.30;22.73;;;;;;;;;;2048446;28;20187;-53
2021/12/06 04:08:06;;;;;;;38.07;21.47;;;;;;;;;;2055658;28;20721;-54
2021/12/06 04:09:07;;;;;;;37.73;22.43;;;;;;;;;;2045835;28;20222;-53
2021/12/06 04:10:08;;;;;;;35.20;20.53;;;;;;;;;;2048214;28;20178;-52
2021/12/06 04:11:09;;;;;;;36.73;22.07;;;;;;;;;;2053761;28;20192;-55
2021/12/06 04:12:11;;;;;;;34.03;21.30;;;;;;;;;;2055516;28;20178;-54
2021/12/06 04:13:12;;;;;;;36.00;21.00;;;;;;;;;;2048576;28;20190;-51
2021/12/06 04:14:13;;;;;;;32.20;20.83;;;;;;;;;;2055844;28;20166;-53
2021/12/06 04:15:14;;;;;;;33.20;21.17;;;;;;;;;;2048302;28;20217;-51
2021/12/06 04:16:15;;;;;;;32.57;22.03;;;;;;;;;;2051813;28;20215;-53
2021/12/06 04:17:16;;;;;;;29.87;19.47;;;;;;;;;;2048138;28;20616;-53
2021/12/06 04:18:17;;;;;;;35.33;21.23;;;;;;;;;;2051391;28;20175;-55
2021/12/06 04:19:17;;;;;;;34.17;20.97;;;;;;;;;;2056320;28;20178;-53
2021/12/06 04:20:18;;;;;;;32.50;20.83;;;;;;;;;;2061877;28;20212;-51
2021/12/06 04:21:19;;;;;;;32.57;20.37;;;;;;;;;;2049289;28;20172;-55
2021/12/06 04:22:20;;;;;;;38.10;21.50;;;;;;;;;;2062397;28;20180;-54
2021/12/06 04:23:20;;;;;;;32.93;20.13;;;;;;;;;;2052625;28;20167;-51
2021/12/06 04:24:20;;;;;;;34.00;19.67;;;;;;;;;;2057527;28;20191;-51
2021/12/06 04:25:21;;;;;;;35.17;20.53;;;;;;;;;;2058585;28;20567;-54
2021/12/06 04:26:23;;;;;;;32.53;20.17;;;;;;;;;;2055816;28;20201;-53
2021/12/06 04:27:23;;;;;;;35.27;21.50;;;;;;;;;;2048947;28;20205;-52
2021/12/06 04:28:24;;;;;;;34.63;20.63;;;;;;;;;;2049815;28;20178;-53
2021/12/06 04:29:25;;;;;;;35.70;20.47;;;;;;;;;;2052283;28;20170;-54
2021/12/06 04:30:26;;;;;;;31.73;19.07;;;;;;;;;;2052313;28;20203;-51
2021/12/06 04:31:29;;;;;;;33.50;20.40;;;;;;;;;;2062215;28;20569;-51
2021/12/06 04:32:30;;;;;;;30.50;20.03;;;;;;;;;;2052999;28;20171;-53
2021/12/06 04:33:30;;;;;;;37.33;21.80;;;;;;;;;;2049672;28;20174;-50
2021/12/06 04:34:31;;;;;;;32.53;19.50;;;;;;;;;;2050184;28;20283;-50
2021/12/06 04:35:32;;;;;;;33.47;20.50;;;;;;;;;;2054471;28;20174;-51
2021/12/06 04:36:32;;;;;;;37.37;20.20;;;;;;;;;;2069496;28;20192;-53
2021/12/06 04:37:32;;;;;;;33.53;20.60;;;;;;;;;;2058055;28;20174;-53
2021/12/06 04:38:33;;;;;;;36.13;20.70;;;;;;;;;;2060145;28;20847;-54
2021/12/06 04:39:36;;;;;;;34.33;21.57;;;;;;;;;;2062671;28;20184;-54
2021/12/06 04:40:37;;;;;;;30.90;19.80;;;;;;;;;;2069000;28;20228;-53
2021/12/06 04:41:38;;;;;;;35.07;21.63;;;;;;;;;;2061121;28;20292;-54
2021/12/06 04:42:40;;;;;;;30.23;19.73;;;;;;;;;;2051531;28;20745;-50
2021/12/06 04:43:40;;;;;;;34.27;21.63;;;;;;;;;;2059559;28;20190;-54
2021/12/06 04:44:42;;;;;;;28.53;19.23;;;;;;;;;;2059378;28;20835;-54
2021/12/06 04:45:42;;;;;;;30.90;19.70;;;;;;;;;;2051814;28;20229;-55
2021/12/06 04:46:43;;;;;;;32.67;18.73;;;;;;;;;;2046912;28;20557;-54
2021/12/06 04:47:43;;;;;;;32.53;20.27;;;;;;;;;;2052312;28;20179;-53
2021/12/06 04:48:44;;;;;;;31.67;18.60;;;;;;;;;;2053566;28;20210;-53
2021/12/06 04:49:44;;;;;;;29.77;18.77;;;;;;;;;;2048132;29;20177;-52
2021/12/06 04:50:45;;;;;;;30.53;18.77;;;;;;;;;;2055886;28;20212;-52
2021/12/06 04:51:48;;;;;;;33.33;19.37;;;;;;;;;;2043704;28;20541;-52
2021/12/06 04:52:48;;;;;;;28.47;19.43;;;;;;;;;;2060111;28;20656;-50
2021/12/06 04:53:48;;;;;;;28.83;20.10;;;;;;;;;;2066192;28;20178;-56
2021/12/06 04:54:52;;;;;;;29.03;19.73;;;;;;;;;;2055712;28;20575;-54
2021/12/06 04:56:04;;;;;;;29.23;19.37;;;;;;;;;;2061832;28;20277;-54
2021/12/06 04:57:26;;;;;;;28.77;19.40;;;;;;;;;;2047331;28;20176;-54
2021/12/06 04:58:30;;;;;;;31.97;18.70;;;;;;;;;;2047067;28;20187;-53
2021/12/06 04:59:34;;;;;;;28.80;19.43;;;;;;;;;;2051651;28;20182;-53
2021/12/06 05:00:39;;;;;;;28.80;19.47;;;;;;;;;;2051547;28;20187;-51
2021/12/06 05:01:40;;;;;;;32.07;19.70;;;;;;;;;;2051191;28;20166;-54
2021/12/06 05:02:41;;;;;;;29.03;19.67;;;;;;;;;;2045776;28;20246;-55
2021/12/06 05:03:43;;;;;;;27.70;16.97;;;;;;;;;;2051431;28;20225;-50
2021/12/06 05:04:47;;;;;;;26.50;17.70;;;;;;;;;;2049327;28;20606;-56
2021/12/06 05:05:51;;;;;;;26.43;18.17;;;;;;;;;;2055456;28;20182;-52
2021/12/06 05:06:55;;;;;;;28.40;17.10;;;;;;;;;;2056539;28;20710;-54
2021/12/06 05:07:59;;;;;;;27.43;18.30;;;;;;;;;;2048969;28;20189;-54
2021/12/06 05:09:03;;;;;;;27.60;18.60;;;;;;;;;;2048766;28;20206;-50
2021/12/06 05:10:06;;;;;;;28.57;17.30;;;;;;;;;;2057359;28;20190;-51
2021/12/06 05:11:07;;;;;;;30.00;18.20;;;;;;;;;;2056851;28;20175;-54
2021/12/06 05:12:09;;;;;;;28.63;18.33;;;;;;;;;;2049777;28;20731;-53
2021/12/06 05:13:10;;;;;;;30.63;18.97;;;;;;;;;;2042785;28;20185;-54
2021/12/06 05:14:11;;;;;;;30.63;17.57;;;;;;;;;;2053787;28;20190;-53
2021/12/06 05:15:12;;;;;;;30.23;18.57;;;;;;;;;;2051637;28;20186;-54
2021/12/06 05:16:12;;;;;;;30.60;18.10;;;;;;;;;;2056201;28;20185;-54
2021/12/06 05:17:14;;;;;;;31.50;18.67;;;;;;;;;;2049581;28;20718;-54
2021/12/06 05:18:14;;;;;;;29.17;18.53;;;;;;;;;;2060437;28;20182;-52
2021/12/06 05:19:15;;;;;;;31.77;17.97;;;;;;;;;;2058547;28;20177;-52
2021/12/06 05:20:16;;;;;;;29.60;18.20;;;;;;;;;;2060617;28;20562;-55
2021/12/06 05:21:18;;;;;;;29.27;18.00;;;;;;;;;;2058401;28;20210;-55
2021/12/06 05:22:20;;;;;;;30.27;18.33;;;;;;;;;;2055218;28;20651;-54
2021/12/06 05:23:20;;;;;;;28.93;17.90;;;;;;;;;;2044629;28;20215;-54
2021/12/06 05:24:21;;;;;;;28.60;19.27;;;;;;;;;;2054979;28;20631;-52
2021/12/06 05:25:25;;;;;;;29.77;19.13;;;;;;;;;;2054885;28;20170;-53
2021/12/06 05:26:26;;;;;;;29.63;18.87;;;;;;;;;;2053394;28;20178;-52
2021/12/06 05:27:30;;;;;;;30.07;18.87;;;;;;;;;;2043583;28;20179;-51
2021/12/06 05:28:38;;;;;;;31.00;18.93;;;;;;;;;;2053419;28;20251;-53
2021/12/06 05:29:44;;;;;;;30.83;19.60;;;;;;;;;;2061334;28;20181;-52
2021/12/06 05:30:45;;;;;;;31.63;18.90;;;;;;;;;;2052420;28;20325;-51
2021/12/06 05:31:54;;;;;;;34.43;19.30;;;;;;;;;;2047216;28;20699;-52
2021/12/06 05:32:58;;;;;;;32.30;18.60;;;;;;;;;;2056549;28;20174;-56
2021/12/06 05:34:02;;;;;;;32.87;19.10;;;;;;;;;;2070451;28;20169;-56
2021/12/06 05:35:07;;;;;;;33.30;20.47;;;;;;;;;;2061886;28;20264;-52
2021/12/06 05:36:07;;;;;;;29.00;18.97;;;;;;;;;;2065813;28;20213;-55
2021/12/06 05:37:09;;;;;;;29.30;18.60;;;;;;;;;;2065753;28;20178;-52
2021/12/06 05:38:09;;;;;;;30.10;19.67;;;;;;;;;;2064718;28;20264;-56
2021/12/06 05:39:10;;;;;;;31.10;19.13;;;;;;;;;;2066581;28;20186;-53
2021/12/06 05:40:14;;;;;;;28.80;19.20;;;;;;;;;;2071845;28;20208;-55
2021/12/06 05:41:14;;;;;;;29.93;18.30;;;;;;;;;;2058323;28;20643;-56
2021/12/06 05:42:14;;;;;;;29.53;19.43;;;;;;;;;;2063073;28;20173;-53
2021/12/06 05:43:14;;;;;;;33.77;19.53;;;;;;;;;;2067223;28;20198;-54
2021/12/06 05:44:15;;;;;;;27.13;17.63;;;;;;;;;;2061325;28;20187;-52
2021/12/06 05:45:17;;;;;;;31.17;18.67;;;;;;;;;;2057300;28;20638;-57
2021/12/06 05:46:17;;;;;;;29.30;18.43;;;;;;;;;;2069939;28;20185;-54
2021/12/06 05:47:18;;;;;;;26.83;17.87;;;;;;;;;;2073222;28;20235;-55
2021/12/06 05:48:19;;;;;;;29.67;18.40;;;;;;;;;;2066419;28;20181;-54
2021/12/06 05:49:19;;;;;;;28.63;18.57;;;;;;;;;;2072303;28;20197;-52
2021/12/06 05:50:20;;;;;;;27.83;17.77;;;;;;;;;;2067842;28;20218;-53
2021/12/06 05:51:20;;;;;;;28.10;18.03;;;;;;;;;;2071763;28;20748;-52
2021/12/06 05:52:21;;;;;;;25.50;16.60;;;;;;;;;;2068570;28;20192;-55
2021/12/06 05:53:22;;;;;;;32.77;19.50;;;;;;;;;;2072436;28;20169;-52
2021/12/06 05:54:22;;;;;;;25.23;16.50;;;;;;;;;;2067283;28;20185;-55
2021/12/06 05:55:23;;;;;;;24.47;17.47;;;;;;;;;;2070638;28;20185;-52
2021/12/06 05:56:24;;;;;;;25.30;16.97;;;;;;;;;;2068971;28;20166;-53
2021/12/06 05:57:25;;;;;;;24.70;17.33;;;;;;;;;;2071500;28;20208;-52
2021/12/06 05:58:27;;;;;;;28.70;17.63;;;;;;;;;;2058872;28;20250;-55
2021/12/06 05:59:27;;;;;;;24.20;16.60;;;;;;;;;;2064089;28;20198;-53
2021/12/06 06:00:30;;;;;;;24.47;16.57;;;;;;;;;;2070347;28;20205;-54
2021/12/06 06:01:30;;;;;;;24.67;16.20;;;;;;;;;;2070900;28;20162;-53
2021/12/06 06:02:31;;;;;;;27.97;16.60;;;;;;;;;;2069125;28;20237;-56
2021/12/06 06:03:31;;;;;;;23.93;15.87;;;;;;;;;;2072495;28;20189;-53
2021/12/06 06:04:32;;;;;;;26.50;16.50;;;;;;;;;;2073407;28;20173;-51
2021/12/06 06:05:34;;;;;;;26.93;17.77;;;;;;;;;;2072598;28;20180;-52
2021/12/06 06:06:35;;;;;;;25.00;17.37;;;;;;;;;;2072611;28;20272;-52
2021/12/06 06:07:36;;;;;;;29.90;17.10;;;;;;;;;;2071653;28;20637;-49
2021/12/06 06:08:36;;;;;;;28.33;17.23;;;;;;;;;;2071824;28;20209;-49
2021/12/06 06:09:36;;;;;;;31.23;17.03;;;;;;;;;;2072246;28;20192;-49
2021/12/06 06:10:37;;;;;;;26.33;16.13;;;;;;;;;;2070779;28;20201;-51
2021/12/06 06:11:37;;;;;;;23.47;16.77;;;;;;;;;;2067127;28;20179;-49
2021/12/06 06:12:37;;;;;;;25.03;15.87;;;;;;;;;;2070467;28;20243;-52
2021/12/06 06:13:37;;;;;;;24.33;16.80;;;;;;;;;;2067989;28;20216;-53
2021/12/06 06:14:38;;;;;;;28.27;18.20;;;;;;;;;;2067916;28;20180;-50